sensor_id;sensor_type;location;lat;lon;timestamp;P1;durP1;ratioP1;P2;durP2;ratioP2
16826;SDS011;8530;49.540;8.576;2023-07-29T00:00:40;4.97;;;3.63;;
16826;SDS011;8530;49.540;8.576;2023-07-29T00:03:07;3.30;;;3.00;;
16826;SDS011;8530;49.540;8.576;2023-07-29T00:05:34;3.57;;;3.10;;
16826;SDS011;8530;49.540;8.576;2023-07-29T00:08:01;4.30;;;3.37;;
16826;SDS011;8530;49.540;8.576;2023-07-29T00:10:30;4.60;;;3.00;;
16826;SDS011;8530;49.540;8.576;2023-07-29T00:12:57;3.20;;;2.87;;
16826;SDS011;8530;49.540;8.576;2023-07-29T00:15:24;3.50;;;3.20;;
16826;SDS011;8530;49.540;8.576;2023-07-29T00:17:51;2.77;;;2.57;;
16826;SDS011;8530;49.540;8.576;2023-07-29T00:20:17;6.63;;;2.60;;
16826;SDS011;8530;49.540;8.576;2023-07-29T00:22:44;4.00;;;2.97;;
16826;SDS011;8530;49.540;8.576;2023-07-29T00:25:11;3.00;;;2.70;;
16826;SDS011;8530;49.540;8.576;2023-07-29T00:27:39;2.80;;;2.40;;
16826;SDS011;8530;49.540;8.576;2023-07-29T00:30:06;3.13;;;2.60;;
16826;SDS011;8530;49.540;8.576;2023-07-29T00:32:34;3.70;;;3.10;;
16826;SDS011;8530;49.540;8.576;2023-07-29T00:35:01;4.20;;;2.77;;
16826;SDS011;8530;49.540;8.576;2023-07-29T00:37:29;4.93;;;2.60;;
16826;SDS011;8530;49.540;8.576;2023-07-29T00:39:56;3.20;;;2.90;;
16826;SDS011;8530;49.540;8.576;2023-07-29T00:42:24;2.70;;;2.33;;
16826;SDS011;8530;49.540;8.576;2023-07-29T00:44:52;9.77;;;2.90;;
16826;SDS011;8530;49.540;8.576;2023-07-29T00:47:18;3.47;;;2.70;;
16826;SDS011;8530;49.540;8.576;2023-07-29T00:49:46;2.77;;;2.10;;
16826;SDS011;8530;49.540;8.576;2023-07-29T00:52:13;3.03;;;2.50;;
16826;SDS011;8530;49.540;8.576;2023-07-29T00:54:39;3.63;;;2.40;;
16826;SDS011;8530;49.540;8.576;2023-07-29T00:57:06;2.67;;;2.47;;
16826;SDS011;8530;49.540;8.576;2023-07-29T00:59:35;2.47;;;2.20;;
16826;SDS011;8530;49.540;8.576;2023-07-29T01:02:03;2.40;;;2.13;;
16826;SDS011;8530;49.540;8.576;2023-07-29T01:04:30;2.33;;;2.13;;
16826;SDS011;8530;49.540;8.576;2023-07-29T01:06:58;2.43;;;2.03;;
16826;SDS011;8530;49.540;8.576;2023-07-29T01:09:30;3.70;;;2.10;;
16826;SDS011;8530;49.540;8.576;2023-07-29T01:12:10;6.00;;;2.53;;
16826;SDS011;8530;49.540;8.576;2023-07-29T01:14:45;4.53;;;2.00;;
16826;SDS011;8530;49.540;8.576;2023-07-29T01:17:20;2.83;;;2.60;;
16826;SDS011;8530;49.540;8.576;2023-07-29T01:19:54;4.13;;;2.53;;
16826;SDS011;8530;49.540;8.576;2023-07-29T01:22:28;3.90;;;2.57;;
16826;SDS011;8530;49.540;8.576;2023-07-29T01:24:58;5.10;;;3.70;;
16826;SDS011;8530;49.540;8.576;2023-07-29T01:27:25;4.63;;;2.90;;
16826;SDS011;8530;49.540;8.576;2023-07-29T01:29:51;4.77;;;3.00;;
16826;SDS011;8530;49.540;8.576;2023-07-29T01:32:27;5.80;;;3.47;;
16826;SDS011;8530;49.540;8.576;2023-07-29T01:35:00;3.80;;;2.90;;
16826;SDS011;8530;49.540;8.576;2023-07-29T01:37:34;3.90;;;3.30;;
16826;SDS011;8530;49.540;8.576;2023-07-29T01:40:05;6.90;;;3.73;;
16826;SDS011;8530;49.540;8.576;2023-07-29T01:42:35;12.00;;;3.93;;
16826;SDS011;8530;49.540;8.576;2023-07-29T01:45:02;6.90;;;4.20;;
16826;SDS011;8530;49.540;8.576;2023-07-29T01:47:30;9.90;;;4.50;;
16826;SDS011;8530;49.540;8.576;2023-07-29T01:49:57;4.53;;;3.80;;
16826;SDS011;8530;49.540;8.576;2023-07-29T01:52:23;5.30;;;3.77;;
16826;SDS011;8530;49.540;8.576;2023-07-29T01:54:50;9.00;;;4.67;;
16826;SDS011;8530;49.540;8.576;2023-07-29T01:57:18;7.70;;;4.20;;
16826;SDS011;8530;49.540;8.576;2023-07-29T01:59:45;5.53;;;3.93;;
16826;SDS011;8530;49.540;8.576;2023-07-29T02:02:11;5.27;;;3.30;;
16826;SDS011;8530;49.540;8.576;2023-07-29T02:04:38;10.57;;;4.60;;
16826;SDS011;8530;49.540;8.576;2023-07-29T02:07:05;8.13;;;4.53;;
16826;SDS011;8530;49.540;8.576;2023-07-29T02:09:31;5.40;;;3.73;;
16826;SDS011;8530;49.540;8.576;2023-07-29T02:12:01;7.43;;;3.90;;
16826;SDS011;8530;49.540;8.576;2023-07-29T02:14:29;6.17;;;3.50;;
16826;SDS011;8530;49.540;8.576;2023-07-29T02:16:56;9.80;;;3.77;;
16826;SDS011;8530;49.540;8.576;2023-07-29T02:19:23;7.03;;;4.40;;
16826;SDS011;8530;49.540;8.576;2023-07-29T02:21:49;6.60;;;4.47;;
16826;SDS011;8530;49.540;8.576;2023-07-29T02:24:16;6.43;;;4.80;;
16826;SDS011;8530;49.540;8.576;2023-07-29T02:26:43;8.90;;;4.77;;
16826;SDS011;8530;49.540;8.576;2023-07-29T02:29:09;6.40;;;4.20;;
16826;SDS011;8530;49.540;8.576;2023-07-29T02:31:37;8.47;;;3.70;;
16826;SDS011;8530;49.540;8.576;2023-07-29T02:34:04;8.17;;;3.97;;
16826;SDS011;8530;49.540;8.576;2023-07-29T02:36:31;3.63;;;3.00;;
16826;SDS011;8530;49.540;8.576;2023-07-29T02:38:57;6.43;;;2.90;;
16826;SDS011;8530;49.540;8.576;2023-07-29T02:41:24;12.37;;;3.90;;
16826;SDS011;8530;49.540;8.576;2023-07-29T02:43:51;7.80;;;4.03;;
16826;SDS011;8530;49.540;8.576;2023-07-29T02:46:18;4.67;;;3.30;;
16826;SDS011;8530;49.540;8.576;2023-07-29T02:48:46;3.33;;;2.80;;
16826;SDS011;8530;49.540;8.576;2023-07-29T02:51:12;5.43;;;3.10;;
16826;SDS011;8530;49.540;8.576;2023-07-29T02:53:39;3.93;;;2.80;;
16826;SDS011;8530;49.540;8.576;2023-07-29T02:56:06;3.37;;;2.50;;
16826;SDS011;8530;49.540;8.576;2023-07-29T02:58:34;5.00;;;2.80;;
16826;SDS011;8530;49.540;8.576;2023-07-29T03:01:01;2.43;;;2.23;;
16826;SDS011;8530;49.540;8.576;2023-07-29T03:03:28;5.83;;;2.57;;
16826;SDS011;8530;49.540;8.576;2023-07-29T03:05:58;4.97;;;2.70;;
16826;SDS011;8530;49.540;8.576;2023-07-29T03:08:26;4.00;;;2.70;;
16826;SDS011;8530;49.540;8.576;2023-07-29T03:10:53;3.50;;;2.53;;
16826;SDS011;8530;49.540;8.576;2023-07-29T03:13:20;5.90;;;3.00;;
16826;SDS011;8530;49.540;8.576;2023-07-29T03:15:47;3.53;;;2.90;;
16826;SDS011;8530;49.540;8.576;2023-07-29T03:18:14;8.50;;;2.37;;
16826;SDS011;8530;49.540;8.576;2023-07-29T03:20:41;2.50;;;2.30;;
16826;SDS011;8530;49.540;8.576;2023-07-29T03:23:09;6.50;;;2.90;;
16826;SDS011;8530;49.540;8.576;2023-07-29T03:25:36;3.77;;;2.40;;
16826;SDS011;8530;49.540;8.576;2023-07-29T03:28:03;2.77;;;2.40;;
16826;SDS011;8530;49.540;8.576;2023-07-29T03:30:29;5.23;;;2.20;;
16826;SDS011;8530;49.540;8.576;2023-07-29T03:32:56;3.40;;;1.90;;
16826;SDS011;8530;49.540;8.576;2023-07-29T03:35:23;3.37;;;2.43;;
16826;SDS011;8530;49.540;8.576;2023-07-29T03:37:50;2.60;;;2.40;;
16826;SDS011;8530;49.540;8.576;2023-07-29T03:40:18;4.90;;;2.67;;
16826;SDS011;8530;49.540;8.576;2023-07-29T03:42:44;4.13;;;3.13;;
16826;SDS011;8530;49.540;8.576;2023-07-29T03:45:11;3.83;;;3.30;;
16826;SDS011;8530;49.540;8.576;2023-07-29T03:47:38;5.33;;;4.03;;
16826;SDS011;8530;49.540;8.576;2023-07-29T03:50:05;10.50;;;5.77;;
16826;SDS011;8530;49.540;8.576;2023-07-29T03:52:32;4.23;;;3.60;;
16826;SDS011;8530;49.540;8.576;2023-07-29T03:54:59;3.33;;;3.03;;
16826;SDS011;8530;49.540;8.576;2023-07-29T03:57:27;6.23;;;3.47;;
16826;SDS011;8530;49.540;8.576;2023-07-29T03:59:54;5.20;;;2.57;;
16826;SDS011;8530;49.540;8.576;2023-07-29T04:02:21;3.47;;;3.17;;
16826;SDS011;8530;49.540;8.576;2023-07-29T04:04:48;3.97;;;2.70;;
16826;SDS011;8530;49.540;8.576;2023-07-29T04:07:14;4.97;;;2.80;;
16826;SDS011;8530;49.540;8.576;2023-07-29T04:09:41;4.77;;;3.33;;
16826;SDS011;8530;49.540;8.576;2023-07-29T04:12:08;4.27;;;3.33;;
16826;SDS011;8530;49.540;8.576;2023-07-29T04:14:37;3.40;;;3.10;;
16826;SDS011;8530;49.540;8.576;2023-07-29T04:17:04;3.43;;;2.57;;
16826;SDS011;8530;49.540;8.576;2023-07-29T04:19:31;4.20;;;2.80;;
16826;SDS011;8530;49.540;8.576;2023-07-29T04:21:57;2.83;;;2.30;;
16826;SDS011;8530;49.540;8.576;2023-07-29T04:24:24;2.50;;;2.23;;
16826;SDS011;8530;49.540;8.576;2023-07-29T04:26:51;2.43;;;2.23;;
16826;SDS011;8530;49.540;8.576;2023-07-29T04:29:17;7.97;;;2.53;;
16826;SDS011;8530;49.540;8.576;2023-07-29T04:31:45;7.73;;;2.47;;
16826;SDS011;8530;49.540;8.576;2023-07-29T04:34:12;3.30;;;2.23;;
16826;SDS011;8530;49.540;8.576;2023-07-29T04:36:39;3.57;;;2.40;;
16826;SDS011;8530;49.540;8.576;2023-07-29T04:39:05;2.77;;;2.57;;
16826;SDS011;8530;49.540;8.576;2023-07-29T04:41:32;4.00;;;3.33;;
16826;SDS011;8530;49.540;8.576;2023-07-29T04:43:59;3.40;;;2.67;;
16826;SDS011;8530;49.540;8.576;2023-07-29T04:46:26;4.40;;;2.90;;
16826;SDS011;8530;49.540;8.576;2023-07-29T04:48:54;7.33;;;4.30;;
16826;SDS011;8530;49.540;8.576;2023-07-29T04:51:21;5.80;;;3.60;;
16826;SDS011;8530;49.540;8.576;2023-07-29T04:53:47;9.63;;;4.23;;
16826;SDS011;8530;49.540;8.576;2023-07-29T04:56:14;8.20;;;3.33;;
16826;SDS011;8530;49.540;8.576;2023-07-29T04:58:41;7.20;;;4.23;;
16826;SDS011;8530;49.540;8.576;2023-07-29T05:01:07;8.47;;;3.43;;
16826;SDS011;8530;49.540;8.576;2023-07-29T05:03:34;5.60;;;4.10;;
16826;SDS011;8530;49.540;8.576;2023-07-29T05:06:03;5.47;;;3.30;;
16826;SDS011;8530;49.540;8.576;2023-07-29T05:08:30;5.73;;;3.57;;
16826;SDS011;8530;49.540;8.576;2023-07-29T05:10:56;4.80;;;4.00;;
16826;SDS011;8530;49.540;8.576;2023-07-29T05:13:23;3.70;;;2.90;;
16826;SDS011;8530;49.540;8.576;2023-07-29T05:15:50;4.17;;;2.80;;
16826;SDS011;8530;49.540;8.576;2023-07-29T05:18:17;2.97;;;2.43;;
16826;SDS011;8530;49.540;8.576;2023-07-29T05:20:44;5.27;;;3.43;;
16826;SDS011;8530;49.540;8.576;2023-07-29T05:23:12;3.93;;;2.93;;
16826;SDS011;8530;49.540;8.576;2023-07-29T05:25:39;6.17;;;3.30;;
16826;SDS011;8530;49.540;8.576;2023-07-29T05:28:06;5.13;;;3.20;;
16826;SDS011;8530;49.540;8.576;2023-07-29T05:30:32;9.03;;;2.27;;
16826;SDS011;8530;49.540;8.576;2023-07-29T05:33:02;3.63;;;2.80;;
16826;SDS011;8530;49.540;8.576;2023-07-29T05:35:29;3.33;;;2.53;;
16826;SDS011;8530;49.540;8.576;2023-07-29T05:37:57;4.20;;;3.00;;
16826;SDS011;8530;49.540;8.576;2023-07-29T05:40:25;5.67;;;3.30;;
16826;SDS011;8530;49.540;8.576;2023-07-29T05:42:52;6.30;;;3.23;;
16826;SDS011;8530;49.540;8.576;2023-07-29T05:45:19;6.90;;;3.00;;
16826;SDS011;8530;49.540;8.576;2023-07-29T05:47:45;4.10;;;3.27;;
16826;SDS011;8530;49.540;8.576;2023-07-29T05:50:12;2.87;;;2.50;;
16826;SDS011;8530;49.540;8.576;2023-07-29T05:52:39;3.50;;;2.50;;
16826;SDS011;8530;49.540;8.576;2023-07-29T05:55:06;4.23;;;2.87;;
16826;SDS011;8530;49.540;8.576;2023-07-29T05:57:34;4.70;;;2.60;;
16826;SDS011;8530;49.540;8.576;2023-07-29T06:00:01;2.83;;;2.50;;
16826;SDS011;8530;49.540;8.576;2023-07-29T06:02:28;6.83;;;3.00;;
16826;SDS011;8530;49.540;8.576;2023-07-29T06:04:55;4.63;;;2.80;;
16826;SDS011;8530;49.540;8.576;2023-07-29T06:07:21;2.40;;;2.00;;
16826;SDS011;8530;49.540;8.576;2023-07-29T06:09:48;2.97;;;2.30;;
16826;SDS011;8530;49.540;8.576;2023-07-29T06:12:15;6.90;;;3.30;;
16826;SDS011;8530;49.540;8.576;2023-07-29T06:14:43;5.23;;;2.83;;
16826;SDS011;8530;49.540;8.576;2023-07-29T06:17:10;3.40;;;2.57;;
16826;SDS011;8530;49.540;8.576;2023-07-29T06:19:37;15.53;;;3.40;;
16826;SDS011;8530;49.540;8.576;2023-07-29T06:22:04;6.67;;;3.00;;
16826;SDS011;8530;49.540;8.576;2023-07-29T06:24:31;8.70;;;3.23;;
16826;SDS011;8530;49.540;8.576;2023-07-29T06:26:58;7.70;;;2.47;;
16826;SDS011;8530;49.540;8.576;2023-07-29T06:29:25;7.70;;;2.53;;
16826;SDS011;8530;49.540;8.576;2023-07-29T06:31:53;3.70;;;2.77;;
16826;SDS011;8530;49.540;8.576;2023-07-29T06:34:21;2.03;;;1.77;;
16826;SDS011;8530;49.540;8.576;2023-07-29T06:36:48;4.27;;;2.30;;
16826;SDS011;8530;49.540;8.576;2023-07-29T06:39:15;3.40;;;2.00;;
16826;SDS011;8530;49.540;8.576;2023-07-29T06:41:42;3.20;;;1.80;;
16826;SDS011;8530;49.540;8.576;2023-07-29T06:44:08;4.83;;;2.20;;
16826;SDS011;8530;49.540;8.576;2023-07-29T06:46:35;2.40;;;2.00;;
16826;SDS011;8530;49.540;8.576;2023-07-29T06:49:04;4.33;;;2.70;;
16826;SDS011;8530;49.540;8.576;2023-07-29T06:51:31;3.40;;;2.17;;
16826;SDS011;8530;49.540;8.576;2023-07-29T06:54:00;4.07;;;3.00;;
16826;SDS011;8530;49.540;8.576;2023-07-29T06:56:26;2.43;;;2.17;;
16826;SDS011;8530;49.540;8.576;2023-07-29T06:58:53;2.90;;;2.60;;
16826;SDS011;8530;49.540;8.576;2023-07-29T07:01:20;3.67;;;2.97;;
16826;SDS011;8530;49.540;8.576;2023-07-29T07:03:47;2.53;;;2.30;;
16826;SDS011;8530;49.540;8.576;2023-07-29T07:06:15;4.70;;;3.20;;
16826;SDS011;8530;49.540;8.576;2023-07-29T07:08:42;4.00;;;2.30;;
16826;SDS011;8530;49.540;8.576;2023-07-29T07:11:09;3.97;;;2.00;;
16826;SDS011;8530;49.540;8.576;2023-07-29T07:13:35;3.70;;;2.90;;
16826;SDS011;8530;49.540;8.576;2023-07-29T07:16:02;3.27;;;2.50;;
16826;SDS011;8530;49.540;8.576;2023-07-29T07:18:29;3.63;;;2.10;;
16826;SDS011;8530;49.540;8.576;2023-07-29T07:20:56;3.37;;;2.63;;
16826;SDS011;8530;49.540;8.576;2023-07-29T07:23:24;3.60;;;1.93;;
16826;SDS011;8530;49.540;8.576;2023-07-29T07:25:50;4.53;;;2.13;;
16826;SDS011;8530;49.540;8.576;2023-07-29T07:28:17;3.87;;;2.20;;
16826;SDS011;8530;49.540;8.576;2023-07-29T07:30:44;3.55;;;1.77;;
16826;SDS011;8530;49.540;8.576;2023-07-29T07:33:11;3.35;;;2.25;;
16826;SDS011;8530;49.540;8.576;2023-07-29T07:35:38;3.47;;;1.98;;
16826;SDS011;8530;49.540;8.576;2023-07-29T07:38:04;2.80;;;1.93;;
16826;SDS011;8530;49.540;8.576;2023-07-29T07:40:33;4.17;;;2.07;;
16826;SDS011;8530;49.540;8.576;2023-07-29T07:43:00;3.70;;;2.20;;
16826;SDS011;8530;49.540;8.576;2023-07-29T07:45:27;3.30;;;1.67;;
16826;SDS011;8530;49.540;8.576;2023-07-29T07:47:54;2.07;;;1.50;;
16826;SDS011;8530;49.540;8.576;2023-07-29T07:50:20;3.10;;;2.33;;
16826;SDS011;8530;49.540;8.576;2023-07-29T07:52:49;4.20;;;2.30;;
16826;SDS011;8530;49.540;8.576;2023-07-29T07:55:15;4.27;;;2.50;;
16826;SDS011;8530;49.540;8.576;2023-07-29T07:57:43;3.10;;;2.63;;
16826;SDS011;8530;49.540;8.576;2023-07-29T08:00:11;5.27;;;2.37;;
16826;SDS011;8530;49.540;8.576;2023-07-29T08:02:40;3.43;;;2.70;;
16826;SDS011;8530;49.540;8.576;2023-07-29T08:05:07;4.27;;;2.60;;
16826;SDS011;8530;49.540;8.576;2023-07-29T08:07:34;7.67;;;3.67;;
16826;SDS011;8530;49.540;8.576;2023-07-29T08:10:01;4.00;;;2.20;;
16826;SDS011;8530;49.540;8.576;2023-07-29T08:12:28;3.10;;;2.03;;
16826;SDS011;8530;49.540;8.576;2023-07-29T08:14:56;4.03;;;2.80;;
16826;SDS011;8530;49.540;8.576;2023-07-29T08:17:23;4.73;;;2.47;;
16826;SDS011;8530;49.540;8.576;2023-07-29T08:19:50;3.50;;;2.87;;
16826;SDS011;8530;49.540;8.576;2023-07-29T08:22:16;3.97;;;1.93;;
16826;SDS011;8530;49.540;8.576;2023-07-29T08:24:43;2.30;;;1.90;;
16826;SDS011;8530;49.540;8.576;2023-07-29T08:27:10;3.90;;;2.03;;
16826;SDS011;8530;49.540;8.576;2023-07-29T08:29:36;8.50;;;2.60;;
16826;SDS011;8530;49.540;8.576;2023-07-29T08:32:05;3.40;;;2.07;;
16826;SDS011;8530;49.540;8.576;2023-07-29T08:34:32;8.00;;;2.40;;
16826;SDS011;8530;49.540;8.576;2023-07-29T08:36:59;7.93;;;2.80;;
16826;SDS011;8530;49.540;8.576;2023-07-29T08:39:25;12.47;;;2.63;;
16826;SDS011;8530;49.540;8.576;2023-07-29T08:41:54;3.30;;;2.50;;
16826;SDS011;8530;49.540;8.576;2023-07-29T08:44:26;6.53;;;2.60;;
16826;SDS011;8530;49.540;8.576;2023-07-29T08:46:56;4.60;;;2.33;;
16826;SDS011;8530;49.540;8.576;2023-07-29T08:49:24;6.97;;;2.50;;
16826;SDS011;8530;49.540;8.576;2023-07-29T08:51:52;3.80;;;2.20;;
16826;SDS011;8530;49.540;8.576;2023-07-29T08:54:19;4.40;;;2.27;;
16826;SDS011;8530;49.540;8.576;2023-07-29T08:56:48;10.90;;;2.80;;
16826;SDS011;8530;49.540;8.576;2023-07-29T08:59:16;2.93;;;1.93;;
16826;SDS011;8530;49.540;8.576;2023-07-29T09:01:43;4.20;;;2.30;;
16826;SDS011;8530;49.540;8.576;2023-07-29T09:04:09;3.30;;;2.83;;
16826;SDS011;8530;49.540;8.576;2023-07-29T09:06:37;6.17;;;2.17;;
16826;SDS011;8530;49.540;8.576;2023-07-29T09:09:06;3.80;;;2.10;;
16826;SDS011;8530;49.540;8.576;2023-07-29T09:11:33;2.13;;;1.93;;
16826;SDS011;8530;49.540;8.576;2023-07-29T09:14:01;3.10;;;1.63;;
16826;SDS011;8530;49.540;8.576;2023-07-29T09:16:27;2.70;;;1.57;;
16826;SDS011;8530;49.540;8.576;2023-07-29T09:18:55;3.63;;;1.97;;
16826;SDS011;8530;49.540;8.576;2023-07-29T09:21:26;2.77;;;1.73;;
16826;SDS011;8530;49.540;8.576;2023-07-29T09:23:55;3.37;;;1.90;;
16826;SDS011;8530;49.540;8.576;2023-07-29T09:26:22;4.00;;;1.83;;
16826;SDS011;8530;49.540;8.576;2023-07-29T09:28:51;2.60;;;1.47;;
16826;SDS011;8530;49.540;8.576;2023-07-29T09:31:19;3.33;;;1.43;;
16826;SDS011;8530;49.540;8.576;2023-07-29T09:33:46;2.60;;;1.70;;
16826;SDS011;8530;49.540;8.576;2023-07-29T09:36:13;2.10;;;1.57;;
16826;SDS011;8530;49.540;8.576;2023-07-29T09:38:40;2.67;;;1.80;;
16826;SDS011;8530;49.540;8.576;2023-07-29T09:41:09;4.50;;;1.87;;
16826;SDS011;8530;49.540;8.576;2023-07-29T09:43:39;3.17;;;2.20;;
16826;SDS011;8530;49.540;8.576;2023-07-29T09:46:05;3.00;;;1.83;;
16826;SDS011;8530;49.540;8.576;2023-07-29T09:48:33;2.20;;;1.80;;
16826;SDS011;8530;49.540;8.576;2023-07-29T09:51:01;2.80;;;2.30;;
16826;SDS011;8530;49.540;8.576;2023-07-29T09:53:38;3.47;;;2.37;;
16826;SDS011;8530;49.540;8.576;2023-07-29T09:56:07;4.43;;;2.07;;
16826;SDS011;8530;49.540;8.576;2023-07-29T09:58:34;2.53;;;1.63;;
16826;SDS011;8530;49.540;8.576;2023-07-29T10:01:03;3.50;;;1.30;;
16826;SDS011;8530;49.540;8.576;2023-07-29T10:03:29;2.90;;;1.83;;
16826;SDS011;8530;49.540;8.576;2023-07-29T10:05:59;5.20;;;2.23;;
16826;SDS011;8530;49.540;8.576;2023-07-29T10:08:27;3.50;;;2.23;;
16826;SDS011;8530;49.540;8.576;2023-07-29T10:10:56;3.47;;;2.07;;
16826;SDS011;8530;49.540;8.576;2023-07-29T10:13:26;3.73;;;2.13;;
16826;SDS011;8530;49.540;8.576;2023-07-29T10:15:53;4.07;;;1.97;;
16826;SDS011;8530;49.540;8.576;2023-07-29T10:18:21;2.97;;;1.77;;
16826;SDS011;8530;49.540;8.576;2023-07-29T10:20:49;6.57;;;1.77;;
16826;SDS011;8530;49.540;8.576;2023-07-29T10:23:17;12.90;;;2.60;;
16826;SDS011;8530;49.540;8.576;2023-07-29T10:25:46;4.53;;;2.30;;
16826;SDS011;8530;49.540;8.576;2023-07-29T10:28:15;3.83;;;3.10;;
16826;SDS011;8530;49.540;8.576;2023-07-29T10:30:47;3.30;;;1.87;;
16826;SDS011;8530;49.540;8.576;2023-07-29T10:33:14;2.93;;;2.00;;
16826;SDS011;8530;49.540;8.576;2023-07-29T10:35:40;2.30;;;1.70;;
16826;SDS011;8530;49.540;8.576;2023-07-29T10:38:08;5.47;;;2.53;;
16826;SDS011;8530;49.540;8.576;2023-07-29T10:40:43;2.50;;;1.60;;
16826;SDS011;8530;49.540;8.576;2023-07-29T10:43:11;4.20;;;2.20;;
16826;SDS011;8530;49.540;8.576;2023-07-29T10:45:40;2.60;;;2.00;;
16826;SDS011;8530;49.540;8.576;2023-07-29T10:48:11;9.63;;;2.70;;
16826;SDS011;8530;49.540;8.576;2023-07-29T10:50:39;2.77;;;1.67;;
16826;SDS011;8530;49.540;8.576;2023-07-29T10:53:06;2.10;;;1.67;;
16826;SDS011;8530;49.540;8.576;2023-07-29T10:55:33;3.40;;;2.40;;
16826;SDS011;8530;49.540;8.576;2023-07-29T10:58:05;2.43;;;1.80;;
16826;SDS011;8530;49.540;8.576;2023-07-29T11:00:38;2.40;;;1.80;;
16826;SDS011;8530;49.540;8.576;2023-07-29T11:03:05;2.17;;;1.90;;
16826;SDS011;8530;49.540;8.576;2023-07-29T11:05:44;5.70;;;2.53;;
16826;SDS011;8530;49.540;8.576;2023-07-29T11:08:17;3.00;;;1.83;;
16826;SDS011;8530;49.540;8.576;2023-07-29T11:11:01;8.63;;;1.87;;
16826;SDS011;8530;49.540;8.576;2023-07-29T11:13:30;3.93;;;1.80;;
16826;SDS011;8530;49.540;8.576;2023-07-29T11:15:58;2.90;;;1.90;;
16826;SDS011;8530;49.540;8.576;2023-07-29T11:18:26;9.80;;;3.37;;
16826;SDS011;8530;49.540;8.576;2023-07-29T11:20:56;3.00;;;2.53;;
16826;SDS011;8530;49.540;8.576;2023-07-29T11:23:33;4.90;;;2.30;;
16826;SDS011;8530;49.540;8.576;2023-07-29T11:26:01;4.10;;;2.60;;
16826;SDS011;8530;49.540;8.576;2023-07-29T11:28:29;3.30;;;2.13;;
16826;SDS011;8530;49.540;8.576;2023-07-29T11:30:56;3.60;;;2.40;;
16826;SDS011;8530;49.540;8.576;2023-07-29T11:33:24;2.60;;;2.40;;
16826;SDS011;8530;49.540;8.576;2023-07-29T11:35:53;4.50;;;2.20;;
16826;SDS011;8530;49.540;8.576;2023-07-29T11:38:22;2.87;;;2.10;;
16826;SDS011;8530;49.540;8.576;2023-07-29T11:40:55;5.03;;;2.90;;
16826;SDS011;8530;49.540;8.576;2023-07-29T11:43:24;2.27;;;1.80;;
16826;SDS011;8530;49.540;8.576;2023-07-29T11:45:51;6.13;;;1.90;;
16826;SDS011;8530;49.540;8.576;2023-07-29T11:48:26;4.80;;;2.90;;
16826;SDS011;8530;49.540;8.576;2023-07-29T11:50:53;4.47;;;2.20;;
16826;SDS011;8530;49.540;8.576;2023-07-29T11:53:22;5.60;;;3.40;;
16826;SDS011;8530;49.540;8.576;2023-07-29T11:55:51;3.37;;;2.00;;
16826;SDS011;8530;49.540;8.576;2023-07-29T11:58:18;2.50;;;2.07;;
16826;SDS011;8530;49.540;8.576;2023-07-29T12:00:46;4.60;;;2.20;;
16826;SDS011;8530;49.540;8.576;2023-07-29T12:03:13;2.70;;;2.27;;
16826;SDS011;8530;49.540;8.576;2023-07-29T12:05:41;8.00;;;1.57;;
16826;SDS011;8530;49.540;8.576;2023-07-29T12:08:09;4.23;;;2.00;;
16826;SDS011;8530;49.540;8.576;2023-07-29T12:10:37;2.63;;;1.73;;
16826;SDS011;8530;49.540;8.576;2023-07-29T12:13:04;1.97;;;1.77;;
16826;SDS011;8530;49.540;8.576;2023-07-29T12:15:33;1.83;;;1.43;;
16826;SDS011;8530;49.540;8.576;2023-07-29T12:18:00;2.43;;;1.30;;
16826;SDS011;8530;49.540;8.576;2023-07-29T12:20:28;2.20;;;2.00;;
16826;SDS011;8530;49.540;8.576;2023-07-29T12:22:56;4.33;;;1.93;;
16826;SDS011;8530;49.540;8.576;2023-07-29T12:25:23;2.10;;;1.80;;
16826;SDS011;8530;49.540;8.576;2023-07-29T12:27:53;3.90;;;1.87;;
16826;SDS011;8530;49.540;8.576;2023-07-29T12:30:20;3.30;;;1.80;;
16826;SDS011;8530;49.540;8.576;2023-07-29T12:32:47;4.40;;;1.87;;
16826;SDS011;8530;49.540;8.576;2023-07-29T12:35:14;9.00;;;2.27;;
16826;SDS011;8530;49.540;8.576;2023-07-29T12:37:41;2.13;;;1.50;;
16826;SDS011;8530;49.540;8.576;2023-07-29T12:40:09;2.57;;;1.43;;
16826;SDS011;8530;49.540;8.576;2023-07-29T12:42:52;2.10;;;1.67;;
16826;SDS011;8530;49.540;8.576;2023-07-29T12:45:19;3.73;;;1.67;;
16826;SDS011;8530;49.540;8.576;2023-07-29T12:47:48;2.70;;;1.67;;
16826;SDS011;8530;49.540;8.576;2023-07-29T12:50:14;1.70;;;1.43;;
16826;SDS011;8530;49.540;8.576;2023-07-29T12:52:41;2.27;;;1.57;;
16826;SDS011;8530;49.540;8.576;2023-07-29T12:55:08;2.33;;;2.00;;
16826;SDS011;8530;49.540;8.576;2023-07-29T12:57:38;3.80;;;1.73;;
16826;SDS011;8530;49.540;8.576;2023-07-29T13:00:08;2.60;;;1.93;;
16826;SDS011;8530;49.540;8.576;2023-07-29T13:02:35;2.90;;;1.50;;
16826;SDS011;8530;49.540;8.576;2023-07-29T13:05:02;3.80;;;2.23;;
16826;SDS011;8530;49.540;8.576;2023-07-29T13:07:29;2.30;;;1.67;;
16826;SDS011;8530;49.540;8.576;2023-07-29T13:09:56;2.37;;;1.60;;
16826;SDS011;8530;49.540;8.576;2023-07-29T13:12:22;3.50;;;1.50;;
16826;SDS011;8530;49.540;8.576;2023-07-29T13:14:49;4.37;;;1.87;;
16826;SDS011;8530;49.540;8.576;2023-07-29T13:17:17;2.73;;;2.10;;
16826;SDS011;8530;49.540;8.576;2023-07-29T13:19:44;4.00;;;2.43;;
16826;SDS011;8530;49.540;8.576;2023-07-29T13:22:10;5.23;;;1.80;;
16826;SDS011;8530;49.540;8.576;2023-07-29T13:24:37;2.90;;;1.70;;
16826;SDS011;8530;49.540;8.576;2023-07-29T13:27:04;3.03;;;2.03;;
16826;SDS011;8530;49.540;8.576;2023-07-29T13:29:31;4.17;;;2.20;;
16826;SDS011;8530;49.540;8.576;2023-07-29T13:32:08;2.00;;;1.63;;
16826;SDS011;8530;49.540;8.576;2023-07-29T13:34:36;2.60;;;1.97;;
16826;SDS011;8530;49.540;8.576;2023-07-29T13:37:05;2.07;;;1.67;;
16826;SDS011;8530;49.540;8.576;2023-07-29T13:39:32;3.13;;;1.83;;
16826;SDS011;8530;49.540;8.576;2023-07-29T13:42:08;2.83;;;1.50;;
16826;SDS011;8530;49.540;8.576;2023-07-29T13:44:35;3.07;;;2.33;;
16826;SDS011;8530;49.540;8.576;2023-07-29T13:47:02;2.90;;;1.87;;
16826;SDS011;8530;49.540;8.576;2023-07-29T13:49:29;3.10;;;1.30;;
16826;SDS011;8530;49.540;8.576;2023-07-29T13:51:57;3.00;;;1.80;;
16826;SDS011;8530;49.540;8.576;2023-07-29T13:54:23;3.43;;;2.03;;
16826;SDS011;8530;49.540;8.576;2023-07-29T13:56:50;3.73;;;1.53;;
16826;SDS011;8530;49.540;8.576;2023-07-29T13:59:19;2.00;;;1.40;;
16826;SDS011;8530;49.540;8.576;2023-07-29T14:01:45;2.70;;;1.70;;
16826;SDS011;8530;49.540;8.576;2023-07-29T14:04:12;2.30;;;2.00;;
16826;SDS011;8530;49.540;8.576;2023-07-29T14:06:39;2.70;;;2.03;;
16826;SDS011;8530;49.540;8.576;2023-07-29T14:09:07;2.00;;;1.60;;
16826;SDS011;8530;49.540;8.576;2023-07-29T14:11:34;2.30;;;1.60;;
16826;SDS011;8530;49.540;8.576;2023-07-29T14:14:01;2.30;;;1.40;;
16826;SDS011;8530;49.540;8.576;2023-07-29T14:16:28;2.20;;;1.93;;
16826;SDS011;8530;49.540;8.576;2023-07-29T14:18:55;2.47;;;2.10;;
16826;SDS011;8530;49.540;8.576;2023-07-29T14:21:22;4.67;;;1.80;;
16826;SDS011;8530;49.540;8.576;2023-07-29T14:23:48;3.03;;;1.47;;
16826;SDS011;8530;49.540;8.576;2023-07-29T14:26:16;4.73;;;1.60;;
16826;SDS011;8530;49.540;8.576;2023-07-29T14:28:43;3.00;;;2.10;;
16826;SDS011;8530;49.540;8.576;2023-07-29T14:31:10;2.40;;;2.07;;
16826;SDS011;8530;49.540;8.576;2023-07-29T14:33:36;2.07;;;1.63;;
16826;SDS011;8530;49.540;8.576;2023-07-29T14:36:03;2.20;;;1.43;;
16826;SDS011;8530;49.540;8.576;2023-07-29T14:38:32;3.20;;;2.10;;
16826;SDS011;8530;49.540;8.576;2023-07-29T14:40:59;1.90;;;1.40;;
16826;SDS011;8530;49.540;8.576;2023-07-29T14:43:27;2.10;;;1.63;;
16826;SDS011;8530;49.540;8.576;2023-07-29T14:45:54;6.73;;;2.67;;
16826;SDS011;8530;49.540;8.576;2023-07-29T14:48:21;2.53;;;1.83;;
16826;SDS011;8530;49.540;8.576;2023-07-29T14:50:48;4.37;;;1.90;;
16826;SDS011;8530;49.540;8.576;2023-07-29T14:53:15;2.87;;;1.60;;
16826;SDS011;8530;49.540;8.576;2023-07-29T14:55:42;2.50;;;1.77;;
16826;SDS011;8530;49.540;8.576;2023-07-29T14:58:09;2.30;;;1.80;;
16826;SDS011;8530;49.540;8.576;2023-07-29T15:00:37;2.40;;;1.80;;
16826;SDS011;8530;49.540;8.576;2023-07-29T15:03:03;2.13;;;1.80;;